createdAt,value
2022-12-15T00:01:08.735Z,92.02
2022-12-15T00:04:30.218Z,93.07
2022-12-15T00:07:52.034Z,93.27
2022-12-15T00:11:13.361Z,93.09
2022-12-15T00:14:34.590Z,93.47
2022-12-15T00:17:55.687Z,93.39
2022-12-15T00:21:17.902Z,93.77
2022-12-15T00:24:39.329Z,94.66
2022-12-15T00:28:00.698Z,94.62
2022-12-15T00:31:21.926Z,94.82
2022-12-15T00:34:43.217Z,94.73
2022-12-15T00:38:04.549Z,94.33
2022-12-15T00:41:07.291Z,94.91
2022-12-15T00:44:11.624Z,94.52
2022-12-15T00:47:16.142Z,95.17
2022-12-15T00:50:37.313Z,94.37
2022-12-15T00:53:59.467Z,94.79
2022-12-15T00:57:20.648Z,95.25
2022-12-15T01:00:42.912Z,95.25
2022-12-15T01:04:04.380Z,94.49
2022-12-15T01:07:25.778Z,94.62
2022-12-15T01:10:46.972Z,94.39
2022-12-15T01:14:08.256Z,94.55
2022-12-15T01:17:30.445Z,94.91
2022-12-15T01:20:34.760Z,95.33
2022-12-15T01:23:38.694Z,95.03
2022-12-15T01:26:41.821Z,95.20
2022-12-15T01:29:44.793Z,95.19
2022-12-15T01:32:47.536Z,94.93
2022-12-15T01:36:01.026Z,94.80
2022-12-15T01:39:03.922Z,94.31
2022-12-15T01:42:08.573Z,94.04
2022-12-15T01:45:29.435Z,94.19
2022-12-15T01:48:44.151Z,93.74
2022-12-15T01:51:50.719Z,93.33
2022-12-15T01:54:58.097Z,92.85
2022-12-15T01:58:07.195Z,92.48
2022-12-15T02:01:10.816Z,91.77
2022-12-15T02:04:15.008Z,92.21
2022-12-15T02:07:18.783Z,92.55
2022-12-15T02:10:26.077Z,92.84
2022-12-15T02:13:40.506Z,91.67
2022-12-15T02:16:59.050Z,92.04
2022-12-15T02:20:01.700Z,91.56
2022-12-15T02:23:35.603Z,91.96
2022-12-15T02:26:44.241Z,92.29
2022-12-15T02:29:47.314Z,92.25
2022-12-15T02:33:08.753Z,92.50
2022-12-15T02:36:35.521Z,92.06
2022-12-15T02:39:38.467Z,92.05
2022-12-15T02:42:46.216Z,92.53
2022-12-15T02:46:17.172Z,91.89
2022-12-15T02:49:45.845Z,92.26
2022-12-15T02:53:08.003Z,91.95
2022-12-15T02:56:28.931Z,91.48
2022-12-15T02:59:42.490Z,90.88
2022-12-15T03:02:50.619Z,90.99
2022-12-15T03:05:55.320Z,91.49
2022-12-15T03:08:58.106Z,90.95
2022-12-15T03:12:01.334Z,90.82
2022-12-15T03:15:04.932Z,90.80
2022-12-15T03:18:07.728Z,90.61
2022-12-15T03:21:11.234Z,90.17
2022-12-15T03:24:13.983Z,91.12
2022-12-15T03:27:16.833Z,89.55
2022-12-15T03:30:19.700Z,90.06
2022-12-15T03:33:22.843Z,90.15
2022-12-15T03:36:25.746Z,90.56
2022-12-15T03:39:28.545Z,91.40
2022-12-15T03:42:49.612Z,91.21
2022-12-15T03:45:52.438Z,90.89
2022-12-15T03:48:55.501Z,91.11
2022-12-15T03:51:58.327Z,91.48
2022-12-15T03:55:01.093Z,91.35
2022-12-15T03:58:03.972Z,91.18
2022-12-15T04:01:23.547Z,90.59
2022-12-15T04:04:26.521Z,90.21
2022-12-15T04:07:29.590Z,90.31
2022-12-15T04:10:35.200Z,89.96
2022-12-15T04:13:38.225Z,90.84
2022-12-15T04:16:41.051Z,90.81
2022-12-15T04:20:02.397Z,90.17
2022-12-15T04:23:08.091Z,91.05
2022-12-15T04:26:29.394Z,91.48
2022-12-15T04:29:50.561Z,90.56
2022-12-15T04:33:13.035Z,91.19
2022-12-15T04:36:35.317Z,91.39
2022-12-15T04:39:59.596Z,92.04
2022-12-15T04:43:20.974Z,91.74
2022-12-15T04:46:42.177Z,92.11
2022-12-15T04:50:03.658Z,93.16
2022-12-15T04:53:36.695Z,92.47
2022-12-15T04:56:57.981Z,92.43
2022-12-15T05:00:19.338Z,92.19
2022-12-15T05:03:41.571Z,92.06
2022-12-15T05:07:05.706Z,92.11
2022-12-15T05:10:27.284Z,92.46
2022-12-15T05:13:48.447Z,92.13
2022-12-15T05:17:09.758Z,92.25
2022-12-15T05:20:31.435Z,92.17
2022-12-15T05:23:52.694Z,92.53
2022-12-15T05:27:14.042Z,93.26
2022-12-15T05:30:35.443Z,93.93
2022-12-15T05:33:38.306Z,93.18
2022-12-15T05:36:41.142Z,92.80
2022-12-15T05:39:43.901Z,92.31
2022-12-15T05:42:50.162Z,92.08
2022-12-15T05:45:53.299Z,92.61
2022-12-15T05:48:56.152Z,92.52
2022-12-15T05:51:58.876Z,92.00
2022-12-15T05:55:01.675Z,91.92
2022-12-15T05:58:04.500Z,92.42
2022-12-15T06:01:10.282Z,92.70
2022-12-15T06:04:14.117Z,92.89
2022-12-15T06:07:17.059Z,93.08
2022-12-15T06:10:19.957Z,92.78
2022-12-15T06:13:27.107Z,92.75
2022-12-15T06:16:30.007Z,93.56
2022-12-15T06:19:32.831Z,93.23
2022-12-15T06:22:35.646Z,93.05
2022-12-15T06:25:38.554Z,93.27
2022-12-15T06:28:42.208Z,92.80
2022-12-15T06:31:45.020Z,93.35
2022-12-15T06:34:49.269Z,93.62
2022-12-15T06:37:51.984Z,94.43
2022-12-15T06:41:00.171Z,94.88
2022-12-15T06:44:03.766Z,94.28
2022-12-15T06:47:08.463Z,93.74
2022-12-15T06:50:12.263Z,93.71
2022-12-15T06:53:18.519Z,93.25
2022-12-15T06:56:30.632Z,92.56
2022-12-15T06:59:36.326Z,92.57
2022-12-15T07:02:40.004Z,93.45
2022-12-15T07:05:44.704Z,93.50
2022-12-15T07:08:53.111Z,93.82
2022-12-15T07:11:56.254Z,93.70
2022-12-15T07:15:00.838Z,94.05
2022-12-15T07:18:06.701Z,92.85
2022-12-15T07:21:16.053Z,92.85
2022-12-15T07:24:19.204Z,93.46
2022-12-15T07:27:22.011Z,92.69
2022-12-15T07:30:26.377Z,92.24
2022-12-15T07:33:30.205Z,93.10
2022-12-15T07:36:33.512Z,93.00
2022-12-15T07:39:36.478Z,92.92
2022-12-15T07:42:39.673Z,92.08
2022-12-15T07:45:46.774Z,91.37
2022-12-15T07:48:53.602Z,91.63
2022-12-15T07:51:58.922Z,91.65
2022-12-15T07:55:01.913Z,90.75
2022-12-15T07:58:06.518Z,90.98
2022-12-15T08:01:12.673Z,90.74
2022-12-15T08:04:15.958Z,90.38
2022-12-15T08:07:18.891Z,91.10
2022-12-15T08:10:22.859Z,91.44
2022-12-15T08:14:00.741Z,90.46
2022-12-15T08:16:49.715Z,91.40
2022-12-15T08:19:58.522Z,90.73
2022-12-15T08:23:01.871Z,91.38
2022-12-15T08:26:10.725Z,92.51
2022-12-15T08:29:49.553Z,92.81
2022-12-15T08:32:37.891Z,92.63
2022-12-15T08:35:56.942Z,93.13
2022-12-15T08:39:01.968Z,92.25
2022-12-15T08:42:06.440Z,92.20
2022-12-15T08:45:13.572Z,91.43
2022-12-15T08:48:17.538Z,91.25
2022-12-15T08:56:12.798Z,91.14
2022-12-15T08:59:16.034Z,91.05
2022-12-15T09:02:21.571Z,90.79
2022-12-15T09:05:27.888Z,90.74
2022-12-15T09:08:32.294Z,90.31
2022-12-15T09:11:35.752Z,89.06
2022-12-15T09:14:41.772Z,88.84
2022-12-15T09:17:47.195Z,89.45
2022-12-15T09:20:51.366Z,89.05
2022-12-15T09:23:58.615Z,90.10
2022-12-15T09:27:02.109Z,89.95
2022-12-15T09:30:05.536Z,89.32
2022-12-15T09:33:11.846Z,88.84
2022-12-15T09:36:17.641Z,88.21
2022-12-15T09:39:21.870Z,88.97
2022-12-15T09:42:31.074Z,89.99
2022-12-15T09:45:44.854Z,89.21
2022-12-15T09:48:50.332Z,89.59
2022-12-15T09:52:08.780Z,88.27
2022-12-15T09:55:33.523Z,87.69
2022-12-15T09:58:50.616Z,88.33
2022-12-15T10:02:18.984Z,87.64
2022-12-15T10:09:26.857Z,87.49
2022-12-15T10:12:37.012Z,87.97
2022-12-15T10:15:50.686Z,88.03
2022-12-15T10:19:02.151Z,87.67
2022-12-15T10:22:05.565Z,87.04
2022-12-15T10:25:32.342Z,88.09
2022-12-15T10:28:41.099Z,88.01
2022-12-15T10:31:59.667Z,87.34
2022-12-15T10:35:08.618Z,87.33
2022-12-15T10:38:33.771Z,87.62
2022-12-15T10:41:36.606Z,88.07
2022-12-15T10:44:42.899Z,87.48
2022-12-15T10:47:59.312Z,86.78
2022-12-15T10:51:27.088Z,86.71
2022-12-15T10:54:37.491Z,86.69
2022-12-15T10:58:01.553Z,85.02
2022-12-15T11:01:16.729Z,86.03
2022-12-15T11:04:31.884Z,85.95
2022-12-15T11:07:39.699Z,85.76
2022-12-15T11:11:16.555Z,85.77
2022-12-15T11:14:29.447Z,84.46
2022-12-15T11:17:42.930Z,83.18
2022-12-15T11:21:11.871Z,84.20
2022-12-15T11:25:08.812Z,85.31
2022-12-15T11:28:18.731Z,83.16
2022-12-15T11:31:33.474Z,81.59
2022-12-15T11:34:39.801Z,80.26
2022-12-15T11:37:52.842Z,79.77
2022-12-15T11:40:58.882Z,81.39
2022-12-15T11:44:17.060Z,80.18
2022-12-15T11:47:46.566Z,78.21
2022-12-15T11:51:04.099Z,78.52
2022-12-15T11:54:39.319Z,81.01
2022-12-15T11:58:03.839Z,79.95
2022-12-15T12:01:37.699Z,78.65
2022-12-15T12:05:03.539Z,80.62
2022-12-15T12:08:29.267Z,81.73
2022-12-15T12:12:09.323Z,83.83
2022-12-15T12:15:16.001Z,82.85
2022-12-15T12:18:26.190Z,81.92
2022-12-15T12:21:37.176Z,82.20
2022-12-15T12:24:50.732Z,82.46
2022-12-15T12:28:14.331Z,82.56
2022-12-15T12:32:04.140Z,84.25
2022-12-15T12:35:38.357Z,84.26
2022-12-15T12:38:56.331Z,82.96
2022-12-15T12:42:13.551Z,84.29
2022-12-15T12:45:17.144Z,85.46
2022-12-15T12:48:26.244Z,84.95
2022-12-15T12:51:32.077Z,84.30
2022-12-15T12:54:37.074Z,84.92
2022-12-15T12:57:41.709Z,86.12
2022-12-15T13:01:20.018Z,85.59
2022-12-15T13:04:29.696Z,84.57
2022-12-15T13:07:36.489Z,84.21
2022-12-15T13:10:42.642Z,83.95
2022-12-15T13:13:51.262Z,84.91
2022-12-15T13:17:25.957Z,86.29
2022-12-15T13:20:32.667Z,85.41
2022-12-15T13:23:42.048Z,85.50
2022-12-15T13:26:48.670Z,86.27
2022-12-15T13:29:58.549Z,86.76
2022-12-15T13:33:17.839Z,86.61
2022-12-15T13:36:42.440Z,87.14
2022-12-15T13:39:54.873Z,87.72
2022-12-15T13:43:04.647Z,88.97
2022-12-15T13:46:23.348Z,87.71
2022-12-15T13:49:34.587Z,88.24
2022-12-15T13:56:13.346Z,87.56
2022-12-15T13:59:19.209Z,87.85
2022-12-15T14:02:25.204Z,88.04
2022-12-15T14:05:28.150Z,87.66
2022-12-15T14:08:31.546Z,87.73
2022-12-15T14:11:52.428Z,87.55
2022-12-15T14:14:56.276Z,87.21
2022-12-15T14:18:01.680Z,86.89
2022-12-15T14:21:20.310Z,87.90
2022-12-15T14:24:39.618Z,88.70
2022-12-15T14:27:53.460Z,89.05
2022-12-15T14:31:04.569Z,88.15
2022-12-15T14:34:12.916Z,89.01
2022-12-15T14:37:21.205Z,90.11
2022-12-15T14:40:28.895Z,90.58
2022-12-15T14:43:37.030Z,90.63
2022-12-15T14:46:45.360Z,90.61
2022-12-15T14:49:48.959Z,90.84
2022-12-15T14:53:05.490Z,91.34
2022-12-15T14:56:27.565Z,91.25
2022-12-15T14:59:46.041Z,90.83
2022-12-15T15:02:48.897Z,91.42
2022-12-15T15:03:11.248Z,87.13
2022-12-15T15:06:02.017Z,90.70
2022-12-15T15:09:20.965Z,91.27
2022-12-15T15:12:27.282Z,91.79
2022-12-15T15:15:30.046Z,90.72
2022-12-15T15:18:33.575Z,89.89
2022-12-15T15:21:37.453Z,90.19
2022-12-15T15:24:40.182Z,90.35
2022-12-15T15:27:42.957Z,90.59
2022-12-15T15:30:50.013Z,90.62
2022-12-15T15:33:54.861Z,90.35
2022-12-15T15:36:57.681Z,90.17
2022-12-15T15:40:00.682Z,90.04
2022-12-15T15:43:11.089Z,89.83
2022-12-15T15:46:20.866Z,89.94
2022-12-15T15:49:24.768Z,90.20
2022-12-15T15:52:30.002Z,90.02
2022-12-15T15:55:39.579Z,90.56
2022-12-15T15:58:43.949Z,90.96
2022-12-15T16:01:52.421Z,90.82
2022-12-15T16:04:55.398Z,90.32
2022-12-15T16:07:59.554Z,89.65
2022-12-15T16:11:02.591Z,89.33
2022-12-15T16:14:11.303Z,90.01
2022-12-15T16:17:16.278Z,90.30
2022-12-15T16:20:21.465Z,90.15
2022-12-15T16:23:27.958Z,90.08
2022-12-15T16:26:32.514Z,88.63
2022-12-15T16:29:35.332Z,88.06
2022-12-15T16:32:38.104Z,88.40
2022-12-15T16:35:42.761Z,89.35
2022-12-15T16:38:45.632Z,88.91
2022-12-15T16:41:48.589Z,89.78
2022-12-15T16:44:51.484Z,90.43
2022-12-15T16:47:55.794Z,90.26
2022-12-15T16:50:59.372Z,90.65
2022-12-15T16:54:02.130Z,90.75
2022-12-15T16:57:06.880Z,90.38
2022-12-15T17:00:22.878Z,89.65
2022-12-15T17:03:28.592Z,89.54
2022-12-15T17:06:31.660Z,90.55
2022-12-15T17:09:38.132Z,91.21
2022-12-15T17:12:41.238Z,91.89
2022-12-15T17:15:44.069Z,92.03
2022-12-15T17:18:47.187Z,92.86
2022-12-15T17:21:54.102Z,92.54
2022-12-15T17:24:56.885Z,92.55
2022-12-15T17:28:00.681Z,92.65
2022-12-15T17:31:04.135Z,93.01
2022-12-15T17:34:19.163Z,93.23
2022-12-15T17:37:22.000Z,93.03
2022-12-15T17:40:24.737Z,92.85
2022-12-15T17:43:35.156Z,92.67
2022-12-15T17:46:38.718Z,92.47
2022-12-15T17:49:42.120Z,93.73
2022-12-15T17:52:47.989Z,94.12
2022-12-15T17:55:52.925Z,93.68
2022-12-15T17:58:56.456Z,93.68
2022-12-15T18:01:59.636Z,94.12
2022-12-15T18:05:02.643Z,93.96
2022-12-15T18:08:18.222Z,94.56
2022-12-15T18:11:21.081Z,94.39
2022-12-15T18:14:24.150Z,94.43
2022-12-15T18:17:26.972Z,94.78
2022-12-15T18:20:31.200Z,95.10
2022-12-15T18:23:35.038Z,95.37
2022-12-15T18:26:38.404Z,94.83
2022-12-15T18:29:41.217Z,94.63
2022-12-15T18:32:45.815Z,94.82
2022-12-15T18:35:50.660Z,94.41
2022-12-15T18:38:53.686Z,95.59
2022-12-15T18:41:57.895Z,95.60
2022-12-15T18:45:02.416Z,95.42
2022-12-15T18:48:27.205Z,95.71
2022-12-15T18:51:31.126Z,94.74
2022-12-15T18:54:34.076Z,93.94
2022-12-15T18:57:38.003Z,94.25
2022-12-15T19:00:41.050Z,94.01
2022-12-15T19:03:44.470Z,94.58
2022-12-15T19:06:47.489Z,95.22
2022-12-15T19:09:50.890Z,95.64
2022-12-15T19:12:58.384Z,95.43
2022-12-15T19:16:03.251Z,95.76
2022-12-15T19:19:24.467Z,94.88
2022-12-15T19:22:27.362Z,94.71
2022-12-15T19:25:31.583Z,95.27
2022-12-15T19:28:34.428Z,94.89
2022-12-15T19:31:37.250Z,95.15
2022-12-15T19:34:40.218Z,95.19
2022-12-15T19:37:45.630Z,95.40
2022-12-15T19:40:49.225Z,95.72
2022-12-15T19:43:53.241Z,96.01
2022-12-15T19:46:56.618Z,95.99
2022-12-15T19:49:59.651Z,96.01
2022-12-15T19:53:27.899Z,95.53
2022-12-15T19:56:31.335Z,95.98
2022-12-15T19:59:34.068Z,96.22
2022-12-15T20:02:37.531Z,96.00
2022-12-15T20:05:40.793Z,95.95
2022-12-15T20:08:46.488Z,95.40
2022-12-15T20:11:49.624Z,94.86
2022-12-15T20:14:52.705Z,94.26
2022-12-15T20:17:58.517Z,95.21
2022-12-15T20:21:01.931Z,95.12
2022-12-15T20:24:09.051Z,95.29
2022-12-15T20:27:17.361Z,95.68
2022-12-15T20:30:27.296Z,95.96
2022-12-15T20:33:30.455Z,96.07
2022-12-15T20:36:33.845Z,96.44
2022-12-15T20:39:36.660Z,96.14
2022-12-15T20:42:39.914Z,96.89
2022-12-15T20:45:43.563Z,97.05
2022-12-15T20:48:47.702Z,96.96
2022-12-15T20:51:51.068Z,97.54
2022-12-15T20:54:54.748Z,98.01
2022-12-15T20:57:57.583Z,98.25
2022-12-15T21:01:00.632Z,98.16
2022-12-15T21:04:19.776Z,98.17
2022-12-15T21:07:22.474Z,98.18
2022-12-15T21:10:26.967Z,98.76
2022-12-15T21:13:33.126Z,97.99
2022-12-15T21:16:36.326Z,98.39
2022-12-15T21:19:39.111Z,98.05
2022-12-15T21:22:42.684Z,98.11
2022-12-15T21:25:45.945Z,98.02
2022-12-15T21:28:50.336Z,98.06
2022-12-15T21:31:53.231Z,98.17
2022-12-15T21:34:56.137Z,98.39
2022-12-15T21:37:58.984Z,98.21
2022-12-15T21:41:04.925Z,97.96
2022-12-15T21:44:13.776Z,97.46
2022-12-15T21:47:46.078Z,97.23
2022-12-15T21:50:48.992Z,96.49
2022-12-15T21:53:52.192Z,96.29
2022-12-15T21:56:55.158Z,96.16
2022-12-15T21:59:58.183Z,95.99
2022-12-15T22:03:01.000Z,96.37
2022-12-15T22:06:04.034Z,96.77
2022-12-15T22:09:06.794Z,96.92
2022-12-15T22:12:20.595Z,97.54
2022-12-15T22:15:23.613Z,96.53
2022-12-15T22:18:26.562Z,96.87
2022-12-15T22:21:29.414Z,96.98
2022-12-15T22:24:32.403Z,96.94
2022-12-15T22:27:35.213Z,96.54
2022-12-15T22:30:38.633Z,97.11
2022-12-15T22:33:41.393Z,96.63
2022-12-15T22:36:45.077Z,96.63
2022-12-15T22:39:52.362Z,97.40
2022-12-15T22:42:58.483Z,97.46
2022-12-15T22:46:01.541Z,98.14
2022-12-15T22:49:04.366Z,98.32
2022-12-15T22:52:19.532Z,98.13
2022-12-15T22:55:24.546Z,97.93
2022-12-15T22:58:37.443Z,98.01
2022-12-15T23:01:40.266Z,98.10
2022-12-15T23:04:43.067Z,97.96
2022-12-15T23:07:46.828Z,97.66
2022-12-15T23:11:08.420Z,97.67
2022-12-15T23:14:13.369Z,97.97
2022-12-15T23:17:16.137Z,97.95
2022-12-15T23:20:19.049Z,97.78
2022-12-15T23:23:21.931Z,98.44
2022-12-15T23:26:26.065Z,98.01
2022-12-15T23:29:29.232Z,98.13
2022-12-15T23:32:32.071Z,97.89
2022-12-15T23:35:35.818Z,98.50
2022-12-15T23:38:39.002Z,98.54
2022-12-15T23:41:41.816Z,98.13
2022-12-15T23:44:44.712Z,98.54
2022-12-15T23:47:47.523Z,99.02
2022-12-15T23:50:50.290Z,98.87
2022-12-15T23:53:53.396Z,98.74
2022-12-15T23:56:57.497Z,98.27
